Time;durP1;ratioP1;P1;durP2;ratioP2;P2;SDS_P1;SDS_P2;PMS_P1;PMS_P2;Temp;Humidity;BMP_temperature;BMP_pressure;BME280_temperature;BME280_humidity;BME280_pressure;Samples;Min_cycle;Max_cycle;Signal;HPM_P1;HPM_P2
2021/11/07 00:12:55;;;;;;;16.27;6.68;;;;;;;;;;5050307;28;20043;-64
2021/11/07 00:15:22;;;;;;;16.02;7.10;;;;;;;;;;5052658;28;20104;-65
2021/11/07 00:17:53;;;;;;;18.60;6.45;;;;;;;;;;5049588;28;20141;-65
2021/11/07 00:20:22;;;;;;;15.38;6.13;;;;;;;;;;5050858;28;20040;-65
2021/11/07 00:25:27;;;;;;;14.20;6.07;;;;;;;;;;5049638;28;20037;-65
2021/11/07 00:27:57;;;;;;;12.93;5.38;;;;;;;;;;5049877;28;20071;-65
2021/11/07 00:30:46;;;;;;;11.85;5.68;;;;;;;;;;5049930;28;20075;-65
2021/11/07 00:38:17;;;;;;;14.77;5.10;;;;;;;;;;5049783;28;20055;-65
2021/11/07 00:40:51;;;;;;;8.10;4.00;;;;;;;;;;5050306;28;20017;-65
2021/11/07 00:43:26;;;;;;;20.83;8.60;;;;;;;;;;5048750;28;20051;-65
2021/11/07 00:53:47;;;;;;;11.90;5.95;;;;;;;;;;5049780;28;20087;-64
2021/11/07 00:56:21;;;;;;;12.32;5.38;;;;;;;;;;5050343;28;20029;-64
2021/11/07 01:01:36;;;;;;;10.77;4.47;;;;;;;;;;5048396;28;20032;-64
2021/11/07 01:04:04;;;;;;;17.40;5.45;;;;;;;;;;5048170;28;20018;-64
2021/11/07 01:06:30;;;;;;;14.18;5.35;;;;;;;;;;5050956;28;20037;-64
2021/11/07 01:08:57;;;;;;;13.57;5.95;;;;;;;;;;5049040;28;20075;-64
2021/11/07 01:11:23;;;;;;;12.55;5.55;;;;;;;;;;5049218;28;20442;-64
2021/11/07 01:13:49;;;;;;;14.98;5.80;;;;;;;;;;5049823;28;20037;-64
2021/11/07 01:16:16;;;;;;;13.32;5.50;;;;;;;;;;5049444;28;20098;-64
2021/11/07 01:18:41;;;;;;;13.70;5.45;;;;;;;;;;5049990;28;20033;-65
2021/11/07 01:21:11;;;;;;;12.90;5.90;;;;;;;;;;5051702;28;20469;-64
2021/11/07 01:23:42;;;;;;;13.90;6.07;;;;;;;;;;5049700;28;20037;-64
2021/11/07 01:26:20;;;;;;;13.43;5.72;;;;;;;;;;5049643;28;20025;-64
2021/11/07 01:28:53;;;;;;;10.27;4.78;;;;;;;;;;5049663;28;20459;-64
2021/11/07 01:31:19;;;;;;;12.25;4.00;;;;;;;;;;5047527;28;20075;-64
2021/11/07 01:33:45;;;;;;;9.48;4.22;;;;;;;;;;5048843;28;20049;-64
2021/11/07 01:38:50;;;;;;;13.52;5.93;;;;;;;;;;5049317;28;20492;-64
2021/11/07 01:41:22;;;;;;;14.82;5.78;;;;;;;;;;5047337;28;20029;-64
2021/11/07 01:43:50;;;;;;;11.23;5.55;;;;;;;;;;5049740;28;20025;-64
2021/11/07 01:46:28;;;;;;;16.45;5.47;;;;;;;;;;5049466;28;20439;-64
2021/11/07 01:49:06;;;;;;;13.02;4.70;;;;;;;;;;5049507;28;20017;-64
2021/11/07 01:51:32;;;;;;;;;;;;;;;;;;5052993;28;20025;-65
2021/11/07 01:54:47;;;;;;;8.63;3.53;;;;;;;;;;5049903;28;20257;-64
2021/11/07 01:56:48;;;;;;;10.70;3.70;;;;;;;;;;5045164;28;20485;-64
2021/11/07 01:59:14;;;;;;;7.45;3.20;;;;;;;;;;5050077;28;20063;-65
2021/11/07 02:01:41;;;;;;;7.97;3.00;;;;;;;;;;5046720;28;20132;-65
2021/11/07 02:04:07;;;;;;;7.85;3.05;;;;;;;;;;5048957;28;20029;-65
2021/11/07 02:06:33;;;;;;;8.10;3.47;;;;;;;;;;5053976;28;20032;-65
2021/11/07 02:08:59;;;;;;;11.85;4.68;;;;;;;;;;5054883;28;20033;-65
2021/11/07 02:11:25;;;;;;;13.25;4.72;;;;;;;;;;5050746;28;20033;-65
2021/11/07 02:13:51;;;;;;;10.52;4.00;;;;;;;;;;5053518;28;20029;-65
2021/11/07 02:16:18;;;;;;;8.90;3.72;;;;;;;;;;5052642;28;20429;-65
2021/11/07 02:18:46;;;;;;;11.70;5.03;;;;;;;;;;5053709;28;20120;-65
2021/11/07 02:21:12;;;;;;;8.68;4.43;;;;;;;;;;5054616;28;20021;-65
2021/11/07 02:23:38;;;;;;;13.52;5.78;;;;;;;;;;5052961;28;20108;-65
2021/11/07 02:26:06;;;;;;;12.90;5.40;;;;;;;;;;5050850;28;20033;-65
2021/11/07 02:28:36;;;;;;;12.60;4.35;;;;;;;;;;5052706;28;20025;-65
2021/11/07 02:31:04;;;;;;;10.27;3.42;;;;;;;;;;5053667;28;20032;-65
2021/11/07 02:33:30;;;;;;;9.70;4.30;;;;;;;;;;5050266;28;20413;-65
2021/11/07 02:35:56;;;;;;;9.57;3.75;;;;;;;;;;5053279;28;20027;-65
2021/11/07 02:38:22;;;;;;;10.40;3.58;;;;;;;;;;5052560;28;20029;-65
2021/11/07 02:40:48;;;;;;;9.93;3.42;;;;;;;;;;5052356;28;20040;-65
2021/11/07 02:43:14;;;;;;;9.05;3.20;;;;;;;;;;5050317;28;20040;-65
2021/11/07 02:45:40;;;;;;;7.32;3.10;;;;;;;;;;5052918;28;20033;-65
2021/11/07 02:48:06;;;;;;;7.30;2.70;;;;;;;;;;5052625;28;20060;-65
2021/11/07 02:50:32;;;;;;;7.53;2.92;;;;;;;;;;5053568;28;20035;-65
2021/11/07 02:52:59;;;;;;;9.32;3.72;;;;;;;;;;5052016;28;20036;-65
2021/11/07 02:55:26;;;;;;;6.43;2.92;;;;;;;;;;5052861;28;20079;-64
2021/11/07 02:57:58;;;;;;;12.65;5.00;;;;;;;;;;5052536;28;20034;-65
2021/11/07 03:00:26;;;;;;;14.25;4.68;;;;;;;;;;5053882;28;20116;-65
2021/11/07 03:02:52;;;;;;;13.90;5.05;;;;;;;;;;5051625;28;20025;-65
2021/11/07 03:05:19;;;;;;;11.90;4.47;;;;;;;;;;5050355;28;20412;-65
2021/11/07 03:07:45;;;;;;;10.30;3.30;;;;;;;;;;5052738;28;20045;-65
2021/11/07 03:10:12;;;;;;;14.82;3.72;;;;;;;;;;5050306;28;20032;-65
2021/11/07 03:12:39;;;;;;;9.07;3.60;;;;;;;;;;5050695;28;20075;-65
2021/11/07 03:15:07;;;;;;;11.35;3.90;;;;;;;;;;5053147;28;20025;-65
2021/11/07 03:17:33;;;;;;;9.20;3.33;;;;;;;;;;5050672;28;20120;-65
2021/11/07 03:19:59;;;;;;;6.85;2.63;;;;;;;;;;5052511;28;20028;-65
2021/11/07 03:22:28;;;;;;;14.32;4.00;;;;;;;;;;5051987;28;20037;-65
2021/11/07 03:24:54;;;;;;;14.40;4.68;;;;;;;;;;5052413;28;20025;-65
2021/11/07 03:27:25;;;;;;;8.30;3.13;;;;;;;;;;5053139;28;20040;-65
2021/11/07 03:29:53;;;;;;;8.90;2.83;;;;;;;;;;5049472;28;20025;-65
2021/11/07 03:32:31;;;;;;;9.80;2.70;;;;;;;;;;5048394;28;20047;-65
2021/11/07 03:35:01;;;;;;;7.57;2.97;;;;;;;;;;5049156;28;20037;-65
2021/11/07 03:37:29;;;;;;;8.52;3.05;;;;;;;;;;5052071;28;20472;-65
2021/11/07 03:39:57;;;;;;;6.20;2.15;;;;;;;;;;5050332;28;20380;-65
2021/11/07 03:42:23;;;;;;;6.93;2.47;;;;;;;;;;5053338;28;20036;-65
2021/11/07 03:44:50;;;;;;;8.90;3.08;;;;;;;;;;5051518;28;20033;-65
2021/11/07 03:47:16;;;;;;;7.85;2.80;;;;;;;;;;5049393;28;20029;-65
2021/11/07 03:49:42;;;;;;;8.63;3.15;;;;;;;;;;5049260;28;20425;-65
2021/11/07 03:52:08;;;;;;;6.13;2.60;;;;;;;;;;5051005;28;20044;-65
2021/11/07 03:54:35;;;;;;;7.05;2.80;;;;;;;;;;5051833;28;20489;-65
2021/11/07 03:57:02;;;;;;;5.82;2.60;;;;;;;;;;5050672;28;20068;-65
2021/11/07 03:59:28;;;;;;;6.93;2.40;;;;;;;;;;5050447;28;20121;-65
2021/11/07 04:01:54;;;;;;;6.25;2.60;;;;;;;;;;5051566;28;20388;-65
2021/11/07 04:04:21;;;;;;;7.80;3.08;;;;;;;;;;5051297;28;20028;-65
2021/11/07 04:06:47;;;;;;;6.88;2.40;;;;;;;;;;5050570;28;20147;-65
2021/11/07 04:09:13;;;;;;;5.57;1.58;;;;;;;;;;5050929;28;20397;-65
2021/11/07 04:11:40;;;;;;;5.65;1.92;;;;;;;;;;5050183;28;20079;-65
2021/11/07 04:14:06;;;;;;;6.32;2.15;;;;;;;;;;5048840;28;20035;-65
2021/11/07 04:16:33;;;;;;;7.30;2.40;;;;;;;;;;5050663;28;20033;-65
2021/11/07 04:18:59;;;;;;;4.82;2.30;;;;;;;;;;5049572;28;20464;-65
2021/11/07 04:21:25;;;;;;;8.25;2.55;;;;;;;;;;5052023;28;20037;-65
2021/11/07 04:23:51;;;;;;;5.38;2.15;;;;;;;;;;5050649;28;20051;-65
2021/11/07 04:26:17;;;;;;;7.10;2.42;;;;;;;;;;5047185;28;20469;-65
2021/11/07 04:28:43;;;;;;;4.43;1.73;;;;;;;;;;5050231;28;20103;-65
2021/11/07 04:31:09;;;;;;;4.85;2.25;;;;;;;;;;5050041;28;20136;-65
2021/11/07 04:33:35;;;;;;;5.82;2.50;;;;;;;;;;5049414;28;20503;-65
2021/11/07 04:36:03;;;;;;;9.07;2.70;;;;;;;;;;5049882;28;20065;-65
2021/11/07 04:38:29;;;;;;;9.13;1.98;;;;;;;;;;5049146;28;20103;-65
2021/11/07 04:40:56;;;;;;;8.02;2.15;;;;;;;;;;5049001;28;20029;-65
2021/11/07 04:43:22;;;;;;;4.45;2.20;;;;;;;;;;5049025;28;20104;-65
2021/11/07 04:45:48;;;;;;;5.93;2.15;;;;;;;;;;5050033;28;20100;-65
2021/11/07 04:48:14;;;;;;;4.47;2.08;;;;;;;;;;5050984;28;20421;-65
2021/11/07 04:50:40;;;;;;;4.03;2.03;;;;;;;;;;5048564;28;20033;-65
2021/11/07 04:53:07;;;;;;;5.25;1.80;;;;;;;;;;5048823;28;20029;-65
2021/11/07 04:55:35;;;;;;;4.25;1.73;;;;;;;;;;5048685;28;20497;-65
2021/11/07 04:58:01;;;;;;;3.95;1.65;;;;;;;;;;5048942;28;20021;-65
2021/11/07 05:00:27;;;;;;;4.60;2.10;;;;;;;;;;5051519;28;20025;-65
2021/11/07 05:02:54;;;;;;;4.57;1.80;;;;;;;;;;5048890;28;20025;-65
2021/11/07 05:05:20;;;;;;;4.10;1.65;;;;;;;;;;5048400;28;20020;-65
2021/11/07 05:07:47;;;;;;;3.65;1.38;;;;;;;;;;5050133;28;20025;-65
2021/11/07 05:10:13;;;;;;;4.50;2.17;;;;;;;;;;5047325;28;20375;-65
2021/11/07 05:12:39;;;;;;;5.22;2.38;;;;;;;;;;5050367;28;20507;-65
2021/11/07 05:15:05;;;;;;;4.80;2.47;;;;;;;;;;5049453;28;20036;-65
2021/11/07 05:17:32;;;;;;;4.68;2.35;;;;;;;;;;5048048;28;20033;-65
2021/11/07 05:19:59;;;;;;;4.95;2.35;;;;;;;;;;5048878;28;20021;-65
2021/11/07 05:22:25;;;;;;;3.55;1.70;;;;;;;;;;5048539;28;20119;-65
2021/11/07 05:24:52;;;;;;;3.97;1.63;;;;;;;;;;5047698;28;20040;-66
2021/11/07 05:27:18;;;;;;;2.90;1.50;;;;;;;;;;5049088;28;20472;-65
2021/11/07 05:29:44;;;;;;;3.28;1.65;;;;;;;;;;5048917;28;20055;-65
2021/11/07 05:32:10;;;;;;;4.15;1.50;;;;;;;;;;5048584;28;20068;-65
2021/11/07 05:34:37;;;;;;;4.82;1.88;;;;;;;;;;5048248;28;20047;-66
2021/11/07 05:37:03;;;;;;;4.65;1.63;;;;;;;;;;5048093;28;20489;-66
2021/11/07 05:39:29;;;;;;;3.90;1.60;;;;;;;;;;5049863;28;20090;-65
2021/11/07 05:41:55;;;;;;;4.25;1.92;;;;;;;;;;5049051;28;20384;-66
2021/11/07 05:44:21;;;;;;;5.55;2.63;;;;;;;;;;5048415;28;20036;-65
2021/11/07 05:46:47;;;;;;;3.70;1.67;;;;;;;;;;5048243;28;20495;-65
2021/11/07 05:49:14;;;;;;;4.57;2.03;;;;;;;;;;5047013;28;20037;-64
2021/11/07 05:51:40;;;;;;;6.10;1.75;;;;;;;;;;5049978;28;20021;-66
2021/11/07 05:54:06;;;;;;;4.03;1.80;;;;;;;;;;5049213;28;20020;-65
2021/11/07 05:56:33;;;;;;;8.02;1.50;;;;;;;;;;5048311;28;20025;-66
2021/11/07 05:58:59;;;;;;;2.88;1.60;;;;;;;;;;5045346;28;20024;-63
2021/11/07 06:01:25;;;;;;;2.95;1.50;;;;;;;;;;5048202;28;20055;-64
2021/11/07 06:03:51;;;;;;;4.90;2.08;;;;;;;;;;5047768;28;20041;-63
2021/11/07 06:06:17;;;;;;;4.53;1.85;;;;;;;;;;5050873;28;20027;-65
2021/11/07 06:08:43;;;;;;;4.95;1.77;;;;;;;;;;5048973;28;20033;-64
2021/11/07 06:11:09;;;;;;;2.72;1.45;;;;;;;;;;5048298;28;20096;-65
2021/11/07 06:13:35;;;;;;;7.10;1.60;;;;;;;;;;5047654;28;20064;-65
2021/11/07 06:16:02;;;;;;;3.20;1.50;;;;;;;;;;5047969;28;20641;-65
2021/11/07 06:18:29;;;;;;;4.85;1.33;;;;;;;;;;5050564;28;20071;-64
2021/11/07 06:20:56;;;;;;;4.57;1.40;;;;;;;;;;5052341;28;20104;-65
2021/11/07 06:23:22;;;;;;;4.95;1.95;;;;;;;;;;5047028;28;20033;-64
2021/11/07 06:25:48;;;;;;;5.10;2.03;;;;;;;;;;5047502;28;20441;-65
2021/11/07 06:28:16;;;;;;;4.55;2.03;;;;;;;;;;5046679;28;20037;-67
2021/11/07 06:30:42;;;;;;;6.82;2.03;;;;;;;;;;5044184;28;20021;-68
2021/11/07 06:33:09;;;;;;;5.93;1.95;;;;;;;;;;5048264;28;20408;-68
2021/11/07 06:35:35;;;;;;;5.97;2.08;;;;;;;;;;5047363;28;20477;-67
2021/11/07 06:38:01;;;;;;;4.95;2.15;;;;;;;;;;5047257;28;20456;-65
2021/11/07 06:40:27;;;;;;;3.80;1.50;;;;;;;;;;5047490;28;20029;-66
2021/11/07 06:42:53;;;;;;;4.13;1.95;;;;;;;;;;5047537;28;20124;-68
2021/11/07 06:45:20;;;;;;;4.03;1.70;;;;;;;;;;5049070;28;20219;-66
2021/11/07 06:47:46;;;;;;;6.18;2.00;;;;;;;;;;5048189;28;20044;-68
2021/11/07 06:50:13;;;;;;;10.45;2.30;;;;;;;;;;5046934;28;20048;-66
2021/11/07 06:52:40;;;;;;;8.10;2.38;;;;;;;;;;5050631;28;20540;-66
2021/11/07 06:55:07;;;;;;;6.72;2.03;;;;;;;;;;5050929;28;20512;-68
2021/11/07 06:57:33;;;;;;;5.18;1.50;;;;;;;;;;5053603;28;20036;-65
2021/11/07 06:59:59;;;;;;;5.63;1.70;;;;;;;;;;5051797;28;20025;-70
2021/11/07 07:02:26;;;;;;;5.70;2.30;;;;;;;;;;5048185;28;20033;-66
2021/11/07 07:04:52;;;;;;;10.70;3.92;;;;;;;;;;5033674;28;20128;-64
2021/11/07 07:07:19;;;;;;;12.68;3.50;;;;;;;;;;5048858;28;20528;-69
2021/11/07 07:09:48;;;;;;;12.05;4.60;;;;;;;;;;5051193;28;20129;-66
2021/11/07 07:12:28;;;;;;;16.70;5.53;;;;;;;;;;5049681;28;20051;-65
2021/11/07 07:15:06;;;;;;;15.65;4.68;;;;;;;;;;5052195;28;20025;-65
2021/11/07 07:33:37;;;;;;;7.35;2.47;;;;;;;;;;5046952;28;20481;-66
2021/11/07 07:36:03;;;;;;;5.03;1.85;;;;;;;;;;5049974;28;20021;-65
2021/11/07 07:38:30;;;;;;;8.38;2.05;;;;;;;;;;5046670;28;20025;-66
2021/11/07 07:40:57;;;;;;;4.43;1.88;;;;;;;;;;5048648;28;20100;-66
2021/11/07 07:43:23;;;;;;;4.18;1.77;;;;;;;;;;5050730;28;20145;-67
2021/11/07 07:45:51;;;;;;;6.30;2.40;;;;;;;;;;5058533;28;20042;-68
2021/11/07 07:48:19;;;;;;;8.73;2.55;;;;;;;;;;5049118;28;20496;-69
2021/11/07 07:50:45;;;;;;;6.85;2.88;;;;;;;;;;5044420;28;20025;-69
2021/11/07 07:53:13;;;;;;;3.25;1.40;;;;;;;;;;5050988;28;20089;-68
2021/11/07 07:55:39;;;;;;;5.68;2.60;;;;;;;;;;5058501;28;20021;-68
2021/11/07 07:58:05;;;;;;;5.80;2.15;;;;;;;;;;5046631;28;20037;-68
2021/11/07 08:00:31;;;;;;;6.85;3.03;;;;;;;;;;5044601;28;20025;-68
2021/11/07 08:02:57;;;;;;;8.57;4.13;;;;;;;;;;5039317;28;20053;-68
2021/11/07 08:05:23;;;;;;;8.77;4.30;;;;;;;;;;5043394;28;20025;-69
2021/11/07 08:07:50;;;;;;;8.82;5.00;;;;;;;;;;5047022;28;20028;-69
2021/11/07 08:10:16;;;;;;;8.63;4.45;;;;;;;;;;5042593;28;20497;-70
2021/11/07 08:12:42;;;;;;;4.93;2.65;;;;;;;;;;5048363;28;20033;-69
2021/11/07 08:15:08;;;;;;;4.90;2.45;;;;;;;;;;5055895;28;20031;-69
2021/11/07 08:17:35;;;;;;;6.65;2.92;;;;;;;;;;5050188;28;20496;-69
2021/11/07 08:20:04;;;;;;;6.93;3.20;;;;;;;;;;5046710;28;20563;-69
2021/11/07 08:22:30;;;;;;;9.20;3.42;;;;;;;;;;5045707;28;20063;-69
2021/11/07 08:24:56;;;;;;;6.32;3.20;;;;;;;;;;5048996;28;20468;-69
2021/11/07 08:27:23;;;;;;;7.13;3.47;;;;;;;;;;5047064;28;20057;-69
2021/11/07 08:29:53;;;;;;;7.30;3.35;;;;;;;;;;5044903;28;20036;-69
2021/11/07 08:32:20;;;;;;;6.25;3.28;;;;;;;;;;5049860;28;20086;-70
2021/11/07 08:34:47;;;;;;;6.22;3.05;;;;;;;;;;5048336;28;20553;-71
2021/11/07 08:37:15;;;;;;;7.82;3.33;;;;;;;;;;5048734;28;20044;-69
2021/11/07 08:39:49;;;;;;;;;;;;;;;;;;5064215;28;20422;-67
2021/11/07 09:01:24;;;;;;;7.65;3.30;;;;;;;;;;5048614;28;20056;-66
2021/11/07 09:04:05;;;;;;;4.43;1.88;;;;;;;;;;5048523;28;20050;-66
2021/11/07 09:06:46;;;;;;;5.57;1.92;;;;;;;;;;5048510;28;20025;-66
2021/11/07 09:09:13;;;;;;;4.40;1.77;;;;;;;;;;5050563;28;20025;-66
2021/11/07 09:11:48;;;;;;;4.70;1.92;;;;;;;;;;5048270;28;20036;-65
2021/11/07 09:14:15;;;;;;;4.40;1.77;;;;;;;;;;5046830;28;20036;-65
2021/11/07 09:16:41;;;;;;;4.72;1.58;;;;;;;;;;5048214;28;20016;-65
2021/11/07 09:19:07;;;;;;;3.97;1.80;;;;;;;;;;5047790;28;20035;-65
2021/11/07 09:21:38;;;;;;;5.65;1.70;;;;;;;;;;5051259;28;20021;-65
2021/11/07 09:24:12;;;;;;;7.25;1.52;;;;;;;;;;5051894;28;20036;-66
2021/11/07 09:26:45;;;;;;;3.40;1.70;;;;;;;;;;5049109;28;20388;-65
2021/11/07 09:29:22;;;;;;;3.97;1.48;;;;;;;;;;5048409;28;20025;-66
2021/11/07 09:34:59;;;;;;;3.17;1.08;;;;;;;;;;5018179;28;20132;-67
2021/11/07 09:37:31;;;;;;;3.38;1.23;;;;;;;;;;5028574;28;20032;-66
2021/11/07 09:40:03;;;;;;;3.13;1.27;;;;;;;;;;5022777;28;20071;-65
2021/11/07 09:45:25;;;;;;;3.67;1.40;;;;;;;;;;5050400;28;20061;-65
2021/11/07 09:47:57;;;;;;;3.03;1.47;;;;;;;;;;5048602;28;20025;-65
2021/11/07 09:50:23;;;;;;;5.40;1.67;;;;;;;;;;5048464;28;20033;-66
2021/11/07 09:52:52;;;;;;;6.38;1.33;;;;;;;;;;5047051;28;20025;-65
2021/11/07 09:55:19;;;;;;;3.85;1.70;;;;;;;;;;5049869;28;20480;-66
2021/11/07 09:57:46;;;;;;;3.67;1.30;;;;;;;;;;5049435;28;20020;-66
2021/11/07 10:00:15;;;;;;;4.95;1.50;;;;;;;;;;5050316;28;20017;-65
2021/11/07 10:02:41;;;;;;;3.88;1.40;;;;;;;;;;5047684;28;20021;-64
2021/11/07 10:05:08;;;;;;;4.57;2.00;;;;;;;;;;5047775;28;20112;-65
2021/11/07 10:07:37;;;;;;;5.68;2.30;;;;;;;;;;5047586;28;20532;-64
2021/11/07 10:10:24;;;;;;;4.57;2.00;;;;;;;;;;5047528;28;20050;-65
2021/11/07 10:12:56;;;;;;;3.65;1.90;;;;;;;;;;5047711;28;20038;-65
2021/11/07 10:15:27;;;;;;;4.60;2.00;;;;;;;;;;5049881;28;20079;-64
2021/11/07 10:17:56;;;;;;;3.38;1.33;;;;;;;;;;5047878;28;20028;-64
2021/11/07 10:20:30;;;;;;;4.80;2.00;;;;;;;;;;5046661;28;20032;-64
2021/11/07 10:22:59;;;;;;;4.13;2.33;;;;;;;;;;5047037;28;20123;-65
2021/11/07 10:25:31;;;;;;;3.03;1.83;;;;;;;;;;5049636;28;20543;-64
2021/11/07 10:27:58;;;;;;;3.45;1.60;;;;;;;;;;5035711;28;20028;-64
2021/11/07 10:30:26;;;;;;;6.25;2.33;;;;;;;;;;5050398;28;20020;-64
2021/11/07 10:41:11;;;;;;;3.97;1.60;;;;;;;;;;5051883;28;20033;-64
2021/11/07 10:43:51;;;;;;;3.00;1.40;;;;;;;;;;5051663;28;20021;-64
2021/11/07 10:52:26;;;;;;;2.70;1.20;;;;;;;;;;5039837;28;20079;-64
2021/11/07 10:54:53;;;;;;;1.67;0.75;;;;;;;;;;5051866;28;20092;-64
2021/11/07 10:57:27;;;;;;;1.25;0.70;;;;;;;;;;5054107;28;20021;-64
2021/11/07 11:00:11;;;;;;;2.72;1.10;;;;;;;;;;5053041;28;20555;-64
2021/11/07 11:02:44;;;;;;;2.85;0.98;;;;;;;;;;5051599;28;20056;-66
2021/11/07 11:05:14;;;;;;;1.92;0.80;;;;;;;;;;5052212;28;20063;-66
2021/11/07 11:07:56;;;;;;;2.58;0.98;;;;;;;;;;5051051;28;20021;-66
2021/11/07 11:10:29;;;;;;;1.85;0.55;;;;;;;;;;5048022;28;20022;-66
2021/11/07 11:13:16;;;;;;;0.82;0.40;;;;;;;;;;5051019;28;20517;-66
2021/11/07 11:19:12;;;;;;;1.83;0.80;;;;;;;;;;5040375;28;20481;-66
2021/11/07 11:24:35;;;;;;;2.03;0.82;;;;;;;;;;5054464;28;20075;-66
2021/11/07 11:34:59;;;;;;;1.17;0.93;;;;;;;;;;5050569;28;20029;-66
2021/11/07 11:40:14;;;;;;;1.00;0.52;;;;;;;;;;5034921;28;20473;-66
2021/11/07 11:42:53;;;;;;;3.40;0.80;;;;;;;;;;5052571;28;20491;-66
2021/11/07 11:45:32;;;;;;;3.40;0.82;;;;;;;;;;5053172;28;20067;-66
2021/11/07 11:51:25;;;;;;;1.35;0.85;;;;;;;;;;5027623;28;20060;-66
2021/11/07 11:57:54;;;;;;;1.70;0.82;;;;;;;;;;5049732;28;20536;-66
2021/11/07 12:00:11;;;;;;;1.15;0.70;;;;;;;;;;5048876;28;20044;-66
2021/11/07 12:03:02;;;;;;;2.45;0.80;;;;;;;;;;5050325;28;20017;-65
2021/11/07 12:05:44;;;;;;;1.55;0.70;;;;;;;;;;5049849;28;20029;-66
2021/11/07 12:11:24;;;;;;;1.15;0.50;;;;;;;;;;5045450;28;20041;-66
2021/11/07 12:14:02;;;;;;;1.02;0.60;;;;;;;;;;5049576;28;20453;-66
2021/11/07 12:16:28;;;;;;;;;;;;;;;;;;5051506;28;20412;-66
2021/11/07 12:19:02;;;;;;;0.60;0.35;;;;;;;;;;5050598;28;19994;-66
2021/11/07 12:21:50;;;;;;;3.45;0.52;;;;;;;;;;5049034;28;20166;-66
2021/11/07 12:24:16;;;;;;;2.50;0.45;;;;;;;;;;5027692;28;20561;-69
2021/11/07 12:26:42;;;;;;;3.40;0.43;;;;;;;;;;5049566;28;20044;-68
2021/11/07 12:29:08;;;;;;;0.98;0.60;;;;;;;;;;5049530;28;20017;-68
2021/11/07 12:31:35;;;;;;;1.80;0.60;;;;;;;;;;5049045;28;20028;-68
2021/11/07 12:34:18;;;;;;;2.03;0.63;;;;;;;;;;5050921;28;20049;-67
2021/11/07 12:42:22;;;;;;;1.08;0.60;;;;;;;;;;5053208;28;20059;-67
2021/11/07 12:44:53;;;;;;;1.52;0.40;;;;;;;;;;5048929;28;20021;-67
2021/11/07 12:47:25;;;;;;;1.33;0.60;;;;;;;;;;5049305;28;20021;-66
2021/11/07 12:49:58;;;;;;;5.20;0.60;;;;;;;;;;5049130;28;20099;-67
2021/11/07 12:52:24;;;;;;;1.73;0.70;;;;;;;;;;5048613;28;20487;-67
2021/11/07 12:54:50;;;;;;;3.45;1.10;;;;;;;;;;5049845;28;20083;-67
2021/11/07 12:57:21;;;;;;;1.98;0.60;;;;;;;;;;5051536;28;20036;-66
2021/11/07 12:59:53;;;;;;;1.52;0.60;;;;;;;;;;5048622;28;20025;-66
2021/11/07 13:02:23;;;;;;;1.73;0.75;;;;;;;;;;5049125;28;20028;-66
2021/11/07 13:05:04;;;;;;;5.80;2.70;;;;;;;;;;5049002;28;20404;-66
2021/11/07 13:07:30;;;;;;;3.72;1.08;;;;;;;;;;5048401;28;20259;-66
2021/11/07 13:09:59;;;;;;;3.08;1.17;;;;;;;;;;5049269;28;20384;-66
2021/11/07 13:12:36;;;;;;;5.00;1.40;;;;;;;;;;5052271;28;20029;-66
2021/11/07 13:23:30;;;;;;;5.10;1.92;;;;;;;;;;5049805;28;20032;-67
2021/11/07 13:31:07;;;;;;;5.93;1.65;;;;;;;;;;5049305;28;20120;-67
2021/11/07 13:33:34;;;;;;;3.08;1.10;;;;;;;;;;5047670;28;20447;-67
2021/11/07 13:36:00;;;;;;;4.97;0.95;;;;;;;;;;5050654;28;20505;-67
2021/11/07 13:38:29;;;;;;;8.23;2.53;;;;;;;;;;5048176;28;20033;-66
2021/11/07 13:40:55;;;;;;;5.75;2.38;;;;;;;;;;5048127;28;20017;-67
2021/11/07 13:43:28;;;;;;;4.60;1.60;;;;;;;;;;5047419;28;20025;-66
2021/11/07 13:45:55;;;;;;;2.60;1.23;;;;;;;;;;5048854;28;20025;-66
2021/11/07 13:48:24;;;;;;;5.35;2.35;;;;;;;;;;5050488;28;20029;-67
2021/11/07 13:50:52;;;;;;;19.00;8.13;;;;;;;;;;5046794;28;20028;-66
2021/11/07 13:53:28;;;;;;;14.88;6.60;;;;;;;;;;5047268;28;20519;-67
2021/11/07 13:55:57;;;;;;;16.50;7.70;;;;;;;;;;5048407;28;20017;-67
2021/11/07 13:58:25;;;;;;;29.40;13.10;;;;;;;;;;5046885;28;20435;-67
2021/11/07 14:00:52;;;;;;;22.65;10.20;;;;;;;;;;5052672;28;20024;-67
2021/11/07 14:03:19;;;;;;;17.45;9.20;;;;;;;;;;5057643;28;20091;-67
2021/11/07 14:05:49;;;;;;;12.32;5.03;;;;;;;;;;5054751;28;20029;-67
2021/11/07 14:08:15;;;;;;;9.63;4.95;;;;;;;;;;5054193;28;20123;-67
2021/11/07 14:10:42;;;;;;;6.15;3.45;;;;;;;;;;5054558;28;20419;-67
2021/11/07 14:13:09;;;;;;;6.20;3.10;;;;;;;;;;5053920;28;20072;-67
2021/11/07 14:15:37;;;;;;;7.30;2.72;;;;;;;;;;5056739;28;20040;-68
2021/11/07 14:18:03;;;;;;;;;;;;;;;;;;5056435;28;20771;-65
2021/11/07 14:20:37;;;;;;;5.15;2.00;;;;;;;;;;5055845;28;19905;-69
2021/11/07 14:23:13;;;;;;;5.10;1.50;;;;;;;;;;5053212;28;20029;-68
2021/11/07 14:25:50;;;;;;;5.28;1.95;;;;;;;;;;5056362;28;20017;-67
2021/11/07 14:28:25;;;;;;;3.97;1.63;;;;;;;;;;5054033;28;20117;-67
2021/11/07 14:30:52;;;;;;;2.55;1.00;;;;;;;;;;5056155;28;20025;-67
2021/11/07 14:33:30;;;;;;;2.17;0.80;;;;;;;;;;5057860;28;20452;-67
2021/11/07 14:36:04;;;;;;;2.22;0.68;;;;;;;;;;5055010;28;20380;-65
2021/11/07 14:38:37;;;;;;;2.05;1.08;;;;;;;;;;5054242;28;20036;-66
2021/11/07 14:41:13;;;;;;;2.08;1.13;;;;;;;;;;5054538;28;20028;-67
2021/11/07 14:43:54;;;;;;;3.03;1.30;;;;;;;;;;5055658;28;20032;-66
2021/11/07 14:46:34;;;;;;;3.78;1.50;;;;;;;;;;5054767;28;20017;-66
2021/11/07 14:49:23;;;;;;;5.15;2.50;;;;;;;;;;5038681;28;20137;-66
2021/11/07 14:52:11;;;;;;;7.45;3.50;;;;;;;;;;5055360;28;20053;-66
2021/11/07 15:02:49;;;;;;;14.30;6.47;;;;;;;;;;5054438;28;20455;-66
2021/11/07 15:08:16;;;;;;;11.23;5.63;;;;;;;;;;5054173;28;20056;-67
2021/11/07 15:10:54;;;;;;;13.95;6.50;;;;;;;;;;5055841;28;20036;-66
2021/11/07 15:13:48;;;;;;;18.20;8.75;;;;;;;;;;5050461;28;20039;-65
2021/11/07 15:16:29;;;;;;;13.68;6.70;;;;;;;;;;5037772;28;20033;-66
2021/11/07 15:21:48;;;;;;;10.50;5.10;;;;;;;;;;5050885;28;20033;-65
2021/11/07 15:24:18;;;;;;;4.72;2.20;;;;;;;;;;5052824;28;20055;-65
2021/11/07 15:26:52;;;;;;;7.18;3.00;;;;;;;;;;5052359;28;20465;-66
2021/11/07 15:29:20;;;;;;;5.97;2.47;;;;;;;;;;5051001;28;20415;-66
2021/11/07 15:31:46;;;;;;;7.75;3.10;;;;;;;;;;5052124;28;20032;-68
2021/11/07 15:34:28;;;;;;;7.60;3.20;;;;;;;;;;5049942;28;20041;-67
2021/11/07 15:36:54;;;;;;;5.85;2.97;;;;;;;;;;5051250;28;20032;-64
2021/11/07 15:39:21;;;;;;;5.75;2.75;;;;;;;;;;5050927;28;20053;-63
2021/11/07 15:42:06;;;;;;;8.45;4.20;;;;;;;;;;5051629;28;20032;-66
2021/11/07 15:44:34;;;;;;;9.70;4.95;;;;;;;;;;5055321;28;20090;-65
2021/11/07 15:47:02;;;;;;;13.55;6.50;;;;;;;;;;5057148;28;20029;-67
2021/11/07 15:49:32;;;;;;;9.10;4.50;;;;;;;;;;5037809;28;20480;-66
2021/11/07 15:52:08;;;;;;;12.13;6.70;;;;;;;;;;5032822;28;20349;-65
2021/11/07 15:54:39;;;;;;;16.55;8.00;;;;;;;;;;5052217;28;20063;-63
2021/11/07 15:57:56;;;;;;;16.02;7.05;;;;;;;;;;5050273;28;20025;-61
2021/11/07 16:00:04;;;;;;;13.93;8.02;;;;;;;;;;5038812;28;20047;-62
2021/11/07 16:02:41;;;;;;;16.95;8.93;;;;;;;;;;5044595;28;20082;-64
2021/11/07 16:05:32;;;;;;;25.45;15.20;;;;;;;;;;5050001;28;20037;-63
2021/11/07 16:10:49;;;;;;;14.43;8.25;;;;;;;;;;5051088;28;20431;-63
2021/11/07 16:13:26;;;;;;;10.25;4.63;;;;;;;;;;5033661;28;20839;-63
2021/11/07 16:18:40;;;;;;;10.18;5.97;;;;;;;;;;5047619;28;20031;-62
2021/11/07 16:21:09;;;;;;;7.72;4.30;;;;;;;;;;5051030;28;20574;-64
2021/11/07 16:23:35;;;;;;;7.95;4.40;;;;;;;;;;5038181;28;20025;-63
2021/11/07 16:26:06;;;;;;;8.68;4.30;;;;;;;;;;5050512;28;20017;-63
2021/11/07 16:28:35;;;;;;;14.20;7.25;;;;;;;;;;5046833;28;20021;-63
2021/11/07 16:31:06;;;;;;;11.60;5.30;;;;;;;;;;5048149;28;20426;-63
2021/11/07 16:33:36;;;;;;;7.93;3.92;;;;;;;;;;5049593;28;20451;-64
2021/11/07 16:36:14;;;;;;;16.90;6.20;;;;;;;;;;5043822;28;20091;-64
2021/11/07 16:41:57;;;;;;;6.63;3.00;;;;;;;;;;5048964;28;20429;-63
2021/11/07 16:44:02;;;;;;;20.08;10.80;;;;;;;;;;5045614;28;20128;-65
2021/11/07 16:46:31;;;;;;;17.77;10.32;;;;;;;;;;5050152;28;20453;-66
2021/11/07 16:48:59;;;;;;;14.80;7.78;;;;;;;;;;5037727;28;20411;-65
2021/11/07 16:51:35;;;;;;;22.48;8.40;;;;;;;;;;5050125;28;20029;-63
2021/11/07 16:54:04;;;;;;;20.05;8.88;;;;;;;;;;5049453;28;20029;-64
2021/11/07 16:56:33;;;;;;;24.58;10.30;;;;;;;;;;5049508;28;20017;-64
2021/11/07 16:59:04;;;;;;;33.75;13.40;;;;;;;;;;5046877;28;20032;-65
2021/11/07 17:04:23;;;;;;;22.00;10.23;;;;;;;;;;5047340;28;20072;-64
2021/11/07 17:11:51;;;;;;;30.02;14.27;;;;;;;;;;5048940;28;20047;-64
2021/11/07 17:14:17;;;;;;;42.85;19.67;;;;;;;;;;5047245;28;20025;-65
2021/11/07 17:16:50;;;;;;;24.55;13.38;;;;;;;;;;5037825;28;20063;-62
2021/11/07 17:19:20;;;;;;;26.35;14.23;;;;;;;;;;5048792;28;20029;-64
2021/11/07 17:26:52;;;;;;;46.47;22.17;;;;;;;;;;5049276;28;20029;-69
2021/11/07 17:29:20;;;;;;;45.42;19.98;;;;;;;;;;5045988;28;20512;-68
2021/11/07 17:34:35;;;;;;;25.25;11.32;;;;;;;;;;5048482;28;20469;-65
2021/11/07 17:37:05;;;;;;;37.40;18.48;;;;;;;;;;5041806;28;20025;-66
2021/11/07 17:54:26;;;;;;;34.28;15.73;;;;;;;;;;5046269;28;20075;-66
2021/11/07 17:55:51;;;;;;;25.52;12.43;;;;;;;;;;5047081;28;20036;-65
2021/11/07 17:58:19;;;;;;;23.83;11.95;;;;;;;;;;5057075;28;20034;-66
2021/11/07 18:00:45;;;;;;;39.85;18.33;;;;;;;;;;5047888;28;20492;-65